Time,TemperatureF,DewpointF,PressureIn,WindDirection,WindDirectionDegrees,WindSpeedMPH,WindSpeedGustMPH,Humidity,HourlyPrecipIn,Conditions,Clouds,dailyrainin,SolarRadiationWatts/m^2,SoftwareType,DateUTC
2013-04-20 00:01:00,51.7,37.4,29.79,West,261,2.0,4.0,58,0.00,,,0.00,0,WeatherCatV1.15B25,2013-04-20 04:01:00,
2013-04-20 00:06:00,51.7,37.0,29.79,WSW,247,5.0,8.0,57,0.00,,,0.00,0,WeatherCatV1.15B25,2013-04-20 04:06:00,
2013-04-20 00:12:00,51.7,37.0,29.80,NW,304,5.0,5.0,57,0.00,,,0.00,0,WeatherCatV1.15B25,2013-04-20 04:12:00,
2013-04-20 00:17:00,51.7,37.4,29.80,WSW,245,6.0,8.0,58,0.00,,,0.00,0,WeatherCatV1.15B25,2013-04-20 04:17:00,
2013-04-20 00:22:00,51.7,37.0,29.81,West,280,12.0,16.0,57,0.00,,,0.00,0,WeatherCatV1.15B25,2013-04-20 04:22:00,
2013-04-20 00:27:00,51.6,37.3,29.80,SW,227,6.0,8.0,58,0.00,,,0.00,0,WeatherCatV1.15B25,2013-04-20 04:27:00,
2013-04-20 00:32:00,51.5,37.2,29.80,WNW,297,2.0,6.0,58,0.00,,,0.00,0,WeatherCatV1.15B25,2013-04-20 04:32:00,
2013-04-20 00:37:00,51.5,36.8,29.80,WNW,289,6.0,7.0,57,0.00,,,0.00,0,WeatherCatV1.15B25,2013-04-20 04:37:00,
2013-04-20 00:42:00,51.5,37.2,29.80,West,280,7.0,13.0,58,0.00,,,0.00,0,WeatherCatV1.15B25,2013-04-20 04:42:00,
2013-04-20 00:47:00,51.4,37.1,29.81,West,266,5.0,10.0,58,0.00,,,0.00,0,WeatherCatV1.15B25,2013-04-20 04:47:00,
2013-04-20 00:52:00,51.3,37.5,29.81,SW,233,11.0,11.0,59,0.00,,,0.00,0,WeatherCatV1.15B25,2013-04-20 04:52:00,
2013-04-20 00:57:00,51.2,37.4,29.81,West,276,3.0,6.0,59,0.00,,,0.00,0,WeatherCatV1.15B25,2013-04-20 04:57:00,
2013-04-20 01:02:00,51.0,37.6,29.81,West,274,7.0,12.0,60,0.00,,,0.00,0,WeatherCatV1.15B25,2013-04-20 05:02:00,
2013-04-20 01:07:00,50.9,38.3,29.82,West,260,4.0,5.0,62,0.00,,,0.00,0,WeatherCatV1.15B25,2013-04-20 05:07:00,
2013-04-20 01:12:00,50.6,37.2,29.82,West,268,8.0,10.0,60,0.00,,,0.00,0,WeatherCatV1.15B25,2013-04-20 05:12:00,
2013-04-20 01:17:00,50.5,37.6,29.82,WSW,252,6.0,12.0,61,0.00,,,0.00,0,WeatherCatV1.15B25,2013-04-20 05:17:00,
2013-04-20 01:22:00,50.4,37.9,29.82,West,277,4.0,10.0,62,0.00,,,0.00,0,WeatherCatV1.15B25,2013-04-20 05:22:00,
2013-04-20 01:27:00,50.2,38.1,29.82,West,264,3.0,8.0,63,0.00,,,0.00,0,WeatherCatV1.15B25,2013-04-20 05:27:00,
2013-04-20 01:32:00,50.1,37.6,29.82,West,260,2.0,2.0,62,0.00,,,0.00,0,WeatherCatV1.15B25,2013-04-20 05:32:00,
2013-04-20 01:36:00,50.0,37.5,29.83,WSW,245,6.0,6.0,62,0.00,,,0.00,0,WeatherCatV1.15B25,2013-04-20 05:36:00,
2013-04-20 01:41:00,49.9,37.4,29.82,West,273,6.0,13.0,62,0.00,,,0.00,0,WeatherCatV1.15B25,2013-04-20 05:41:00,
2013-04-20 01:46:00,50.0,37.5,29.83,WSW,246,7.0,14.0,62,0.00,,,0.00,0,WeatherCatV1.15B25,2013-04-20 05:46:00,
2013-04-20 01:51:00,49.8,37.3,29.83,West,274,5.0,8.0,62,0.00,,,0.00,0,WeatherCatV1.15B25,2013-04-20 05:51:00,
2013-04-20 01:54:00,49.7,37.6,29.83,West,273,4.0,4.0,63,0.00,,,0.00,0,WeatherCatV1.15B25,2013-04-20 05:54:00,
2013-04-20 01:56:00,49.6,37.9,29.83,West,279,5.0,8.0,64,0.00,,,0.00,0,WeatherCatV1.15B25,2013-04-20 05:56:00,
2013-04-20 02:01:00,49.5,37.8,29.84,West,264,7.0,7.0,64,0.00,,,0.00,0,WeatherCatV1.15B25,2013-04-20 06:01:00,
2013-04-20 02:06:00,49.3,37.2,29.84,West,273,9.0,10.0,63,0.00,,,0.00,0,WeatherCatV1.15B25,2013-04-20 06:06:00,
2013-04-20 02:11:00,49.3,36.0,29.84,West,269,3.0,10.0,60,0.00,,,0.00,0,WeatherCatV1.15B25,2013-04-20 06:11:00,
2013-04-20 02:16:00,49.3,36.4,29.84,West,281,4.0,4.0,61,0.00,,,0.00,0,WeatherCatV1.15B25,2013-04-20 06:16:00,
2013-04-20 02:21:00,49.2,35.5,29.85,WSW,238,4.0,9.0,59,0.00,,,0.00,0,WeatherCatV1.15B25,2013-04-20 06:21:00,
2013-04-20 02:26:00,49.1,34.5,29.85,NW,321,11.0,13.0,57,0.00,,,0.00,0,WeatherCatV1.15B25,2013-04-20 06:26:00,
2013-04-20 02:31:00,49.1,34.1,29.85,West,263,7.0,18.0,56,0.00,,,0.00,0,WeatherCatV1.15B25,2013-04-20 06:31:00,
2013-04-20 02:36:00,49.1,34.1,29.85,West,260,6.0,9.0,56,0.00,,,0.00,0,WeatherCatV1.15B25,2013-04-20 06:36:00,
2013-04-20 02:41:00,49.0,34.0,29.85,WSW,258,5.0,17.0,56,0.00,,,0.00,0,WeatherCatV1.15B25,2013-04-20 06:41:00,
2013-04-20 02:46:00,49.0,33.5,29.85,NW,309,8.0,14.0,55,0.00,,,0.00,0,WeatherCatV1.15B25,2013-04-20 06:46:00,
2013-04-20 02:51:00,48.9,33.9,29.86,WNW,287,7.0,10.0,56,0.00,,,0.00,0,WeatherCatV1.15B25,2013-04-20 06:51:00,
2013-04-20 02:56:00,48.8,34.2,29.86,West,264,8.0,14.0,57,0.00,,,0.00,0,WeatherCatV1.15B25,2013-04-20 06:56:00,
2013-04-20 03:02:00,48.7,33.7,29.87,WSW,252,7.0,12.0,56,0.00,,,0.00,0,WeatherCatV1.15B25,2013-04-20 07:02:00,
2013-04-20 03:07:00,48.8,34.7,29.87,West,277,5.0,8.0,58,0.00,,,0.00,0,WeatherCatV1.15B25,2013-04-20 07:07:00,
2013-04-20 03:12:00,48.7,34.2,29.86,West,273,8.0,12.0,57,0.00,,,0.00,0,WeatherCatV1.15B25,2013-04-20 07:12:00,
2013-04-20 03:17:00,48.7,33.7,29.87,West,281,8.0,10.0,56,0.00,,,0.00,0,WeatherCatV1.15B25,2013-04-20 07:17:00,
2013-04-20 03:22:00,48.7,33.7,29.87,West,265,5.0,9.0,56,0.00,,,0.00,0,WeatherCatV1.15B25,2013-04-20 07:22:00,
2013-04-20 03:27:00,48.6,34.1,29.87,West,262,6.0,12.0,57,0.00,,,0.00,0,WeatherCatV1.15B25,2013-04-20 07:27:00,
2013-04-20 03:32:00,48.5,34.0,29.88,West,266,7.0,8.0,57,0.00,,,0.00,0,WeatherCatV1.15B25,2013-04-20 07:32:00,
2013-04-20 03:37:00,48.3,33.3,29.87,West,281,5.0,7.0,56,0.00,,,0.00,0,WeatherCatV1.15B25,2013-04-20 07:37:00,
2013-04-20 03:42:00,48.2,33.2,29.88,West,266,5.0,7.0,56,0.00,,,0.00,0,WeatherCatV1.15B25,2013-04-20 07:42:00,
2013-04-20 03:47:00,48.0,32.2,29.88,WSW,246,6.0,14.0,54,0.00,,,0.00,0,WeatherCatV1.15B25,2013-04-20 07:47:00,
2013-04-20 03:52:00,48.0,32.2,29.89,SW,225,5.0,8.0,54,0.00,,,0.00,0,WeatherCatV1.15B25,2013-04-20 07:52:00,
2013-04-20 03:57:00,48.0,32.6,29.89,WNW,286,3.0,6.0,55,0.00,,,0.00,0,WeatherCatV1.15B25,2013-04-20 07:57:00,
2013-04-20 04:02:00,47.9,33.4,29.89,WNW,302,8.0,8.0,57,0.00,,,0.00,0,WeatherCatV1.15B25,2013-04-20 08:02:00,
2013-04-20 04:07:00,47.8,32.0,29.90,WSW,253,2.0,5.0,54,0.00,,,0.00,0,WeatherCatV1.15B25,2013-04-20 08:07:00,
2013-04-20 04:12:00,47.8,31.5,29.90,WSW,246,4.0,10.0,53,0.00,,,0.00,0,WeatherCatV1.15B25,2013-04-20 08:12:00,
2013-04-20 04:17:00,47.8,31.5,29.90,WSW,237,17.0,17.0,53,0.00,,,0.00,0,WeatherCatV1.15B25,2013-04-20 08:17:00,
2013-04-20 04:22:00,47.8,32.4,29.91,WSW,248,8.0,11.0,55,0.00,,,0.00,0,WeatherCatV1.15B25,2013-04-20 08:22:00,
2013-04-20 04:27:00,47.7,33.2,29.91,WSW,247,7.0,11.0,57,0.00,,,0.00,0,WeatherCatV1.15B25,2013-04-20 08:27:00,
2013-04-20 04:32:00,47.4,33.4,29.92,West,273,4.0,7.0,58,0.00,,,0.00,0,WeatherCatV1.15B25,2013-04-20 08:32:00,
2013-04-20 04:37:00,47.1,31.3,29.91,West,267,14.0,19.0,54,0.00,,,0.00,0,WeatherCatV1.15B25,2013-04-20 08:37:00,
2013-04-20 04:42:00,46.8,30.1,29.92,WSW,258,9.0,17.0,52,0.00,,,0.00,0,WeatherCatV1.15B25,2013-04-20 08:42:00,
2013-04-20 04:47:00,46.4,30.2,29.93,WNW,290,5.0,16.0,53,0.00,,,0.00,0,WeatherCatV1.15B25,2013-04-20 08:47:00,
2013-04-20 04:52:00,46.0,28.4,29.93,WSW,250,10.0,20.0,50,0.00,,,0.00,0,WeatherCatV1.15B25,2013-04-20 08:52:00,
2013-04-20 04:57:00,45.6,28.0,29.93,West,270,14.0,18.0,50,0.00,,,0.00,0,WeatherCatV1.15B25,2013-04-20 08:57:00,
2013-04-20 05:02:00,45.3,27.8,29.93,West,265,9.0,20.0,50,0.00,,,0.00,0,WeatherCatV1.15B25,2013-04-20 09:02:00,
2013-04-20 05:07:00,45.1,28.5,29.93,WSW,258,11.0,11.0,52,0.00,,,0.00,0,WeatherCatV1.15B25,2013-04-20 09:07:00,
2013-04-20 05:12:00,44.8,28.3,29.93,West,268,6.0,12.0,52,0.00,,,0.00,0,WeatherCatV1.15B25,2013-04-20 09:12:00,
2013-04-20 05:17:00,44.6,27.6,29.93,WSW,251,12.0,19.0,51,0.00,,,0.00,0,WeatherCatV1.15B25,2013-04-20 09:17:00,
2013-04-20 05:22:00,44.5,28.4,29.94,NW,307,8.0,11.0,53,0.00,,,0.00,0,WeatherCatV1.15B25,2013-04-20 09:22:00,
2013-04-20 05:27:00,44.4,28.4,29.94,SW,232,13.0,15.0,53,0.00,,,0.00,0,WeatherCatV1.15B25,2013-04-20 09:27:00,
2013-04-20 05:32:00,44.2,28.2,29.94,West,274,6.0,12.0,53,0.00,,,0.00,0,WeatherCatV1.15B25,2013-04-20 09:32:00,
2013-04-20 05:37:00,44.0,28.4,29.94,West,281,9.0,12.0,54,0.00,,,0.00,0,WeatherCatV1.15B25,2013-04-20 09:37:00,
2013-04-20 05:42:00,43.9,28.3,29.95,WNW,301,9.0,12.0,54,0.00,,,0.00,0,WeatherCatV1.15B25,2013-04-20 09:42:00,
2013-04-20 05:47:00,43.8,28.2,29.95,WSW,243,3.0,10.0,54,0.00,,,0.00,0,WeatherCatV1.15B25,2013-04-20 09:47:00,
2013-04-20 05:52:00,43.6,28.1,29.95,WSW,250,7.0,11.0,54,0.00,,,0.00,0,WeatherCatV1.15B25,2013-04-20 09:52:00,
2013-04-20 05:59:00,43.6,28.1,29.95,SW,221,6.0,10.0,54,0.00,,,0.00,0,WeatherCatV1.15B25,2013-04-20 09:59:00,
2013-04-20 06:04:00,43.5,28.0,29.95,West,259,4.0,4.0,54,0.00,,,0.00,0,WeatherCatV1.15B25,2013-04-20 10:04:00,
2013-04-20 06:09:00,43.3,28.2,29.96,WSW,255,3.0,4.0,55,0.00,,,0.00,0,WeatherCatV1.15B25,2013-04-20 10:09:00,
2013-04-20 06:14:00,43.1,28.0,29.96,West,280,2.0,5.0,55,0.00,,,0.00,0,WeatherCatV1.15B25,2013-04-20 10:14:00,
2013-04-20 06:19:00,42.9,27.9,29.97,WNW,283,9.0,10.0,55,0.00,,,0.00,0,WeatherCatV1.15B25,2013-04-20 10:19:00,
2013-04-20 06:24:00,42.9,27.9,29.97,West,275,2.0,11.0,55,0.00,,,0.00,0,WeatherCatV1.15B25,2013-04-20 10:24:00,
2013-04-20 06:29:00,42.8,27.8,29.97,WNW,285,5.0,12.0,55,0.00,,,0.00,0,WeatherCatV1.15B25,2013-04-20 10:29:00,
2013-04-20 06:34:00,42.7,27.7,29.97,West,273,5.0,6.0,55,0.00,,,0.00,0,WeatherCatV1.15B25,2013-04-20 10:34:00,
2013-04-20 06:39:00,42.6,27.6,29.98,NW,314,5.0,6.0,55,0.00,,,0.00,5,WeatherCatV1.15B25,2013-04-20 10:39:00,
2013-04-20 06:44:00,42.6,27.6,29.98,WSW,256,7.0,10.0,55,0.00,,,0.00,7,WeatherCatV1.15B25,2013-04-20 10:44:00,
2013-04-20 06:49:00,42.7,27.7,29.98,WNW,282,3.0,16.0,55,0.00,,,0.00,7,WeatherCatV1.15B25,2013-04-20 10:49:00,
2013-04-20 06:54:00,42.7,27.7,29.98,WNW,287,9.0,14.0,55,0.00,,,0.00,11,WeatherCatV1.15B25,2013-04-20 10:54:00,
2013-04-20 06:59:00,42.7,28.5,29.99,West,273,15.0,17.0,57,0.00,,,0.00,12,WeatherCatV1.15B25,2013-04-20 10:59:00,
2013-04-20 07:04:00,42.7,28.1,29.99,NW,309,4.0,10.0,56,0.00,,,0.00,18,WeatherCatV1.15B25,2013-04-20 11:04:00,
2013-04-20 07:09:00,42.7,28.1,30.00,WNW,283,6.0,11.0,56,0.00,,,0.00,63,WeatherCatV1.15B25,2013-04-20 11:09:00,
2013-04-20 07:14:00,43.1,28.5,30.00,NNW,330,4.0,10.0,56,0.00,,,0.00,83,WeatherCatV1.15B25,2013-04-20 11:14:00,
2013-04-20 07:19:00,43.4,28.3,30.01,WNW,291,7.0,11.0,55,0.00,,,0.00,100,WeatherCatV1.15B25,2013-04-20 11:19:00,
2013-04-20 07:24:00,43.7,28.6,30.00,SW,234,3.0,7.0,55,0.00,,,0.00,120,WeatherCatV1.15B25,2013-04-20 11:24:00,
2013-04-20 07:29:00,43.9,28.8,30.01,West,271,4.0,8.0,55,0.00,,,0.00,144,WeatherCatV1.15B25,2013-04-20 11:29:00,
2013-04-20 07:34:00,44.0,29.3,30.01,West,273,3.0,9.0,56,0.00,,,0.00,171,WeatherCatV1.15B25,2013-04-20 11:34:00,
2013-04-20 07:39:00,44.2,29.1,30.01,West,272,4.0,8.0,55,0.00,,,0.00,181,WeatherCatV1.15B25,2013-04-20 11:39:00,
2013-04-20 07:44:00,44.4,28.8,30.01,NW,325,7.0,19.0,54,0.00,,,0.00,207,WeatherCatV1.15B25,2013-04-20 11:44:00,
2013-04-20 07:49:00,44.5,29.4,30.01,NW,308,7.0,9.0,55,0.00,,,0.00,225,WeatherCatV1.15B25,2013-04-20 11:49:00,
2013-04-20 07:54:00,44.6,28.5,30.01,West,264,5.0,12.0,53,0.00,,,0.00,51,WeatherCatV1.15B25,2013-04-20 11:54:00,
2013-04-20 07:59:00,44.7,28.6,30.02,SW,227,10.0,13.0,53,0.00,,,0.00,104,WeatherCatV1.15B25,2013-04-20 11:59:00,
2013-04-20 08:04:00,44.6,28.5,30.02,WSW,241,6.0,17.0,53,0.00,,,0.00,76,WeatherCatV1.15B25,2013-04-20 12:04:00,
2013-04-20 08:09:00,44.7,29.1,30.02,West,279,4.0,8.0,54,0.00,,,0.00,304,WeatherCatV1.15B25,2013-04-20 12:09:00,
2013-04-20 08:14:00,45.0,28.4,30.02,WSW,241,8.0,15.0,52,0.00,,,0.00,76,WeatherCatV1.15B25,2013-04-20 12:14:00,
2013-04-20 08:19:00,45.1,29.0,30.02,WNW,286,8.0,15.0,53,0.00,,,0.00,306,WeatherCatV1.15B25,2013-04-20 12:19:00,
2013-04-20 08:24:00,45.2,29.1,30.02,WNW,283,11.0,13.0,53,0.00,,,0.00,69,WeatherCatV1.15B25,2013-04-20 12:24:00,
2013-04-20 08:30:00,45.5,29.4,30.02,West,271,4.0,17.0,53,0.00,,,0.00,396,WeatherCatV1.15B25,2013-04-20 12:30:00,
2013-04-20 08:35:00,45.7,29.6,30.02,SW,224,10.0,13.0,53,0.00,,,0.00,436,WeatherCatV1.15B25,2013-04-20 12:35:00,
2013-04-20 08:40:00,45.8,29.2,30.02,WNW,298,6.0,18.0,52,0.00,,,0.00,383,WeatherCatV1.15B25,2013-04-20 12:40:00,
2013-04-20 08:45:00,45.9,28.8,30.02,West,262,15.0,20.0,51,0.00,,,0.00,497,WeatherCatV1.15B25,2013-04-20 12:45:00,
2013-04-20 08:50:00,46.2,30.0,30.03,NW,308,6.0,10.0,53,0.00,,,0.00,541,WeatherCatV1.15B25,2013-04-20 12:50:00,
2013-04-20 08:55:00,46.7,29.5,30.03,WSW,248,7.0,11.0,51,0.00,,,0.00,490,WeatherCatV1.15B25,2013-04-20 12:55:00,
2013-04-20 09:00:00,46.9,29.7,30.03,WSW,254,12.0,16.0,51,0.00,,,0.00,564,WeatherCatV1.15B25,2013-04-20 13:00:00,
2013-04-20 09:05:00,46.9,28.8,30.03,West,267,12.0,18.0,49,0.00,,,0.00,557,WeatherCatV1.15B25,2013-04-20 13:05:00,
2013-04-20 09:10:00,46.7,29.1,30.03,WSW,256,8.0,13.0,50,0.00,,,0.00,563,WeatherCatV1.15B25,2013-04-20 13:10:00,
2013-04-20 09:15:00,47.0,29.8,30.04,NW,317,6.0,20.0,51,0.00,,,0.00,605,WeatherCatV1.15B25,2013-04-20 13:15:00,
2013-04-20 09:20:00,47.3,30.1,30.04,WSW,250,8.0,12.0,51,0.00,,,0.00,617,WeatherCatV1.15B25,2013-04-20 13:20:00,
2013-04-20 09:26:00,47.6,29.4,30.05,West,277,9.0,15.0,49,0.00,,,0.00,608,WeatherCatV1.15B25,2013-04-20 13:26:00,
2013-04-20 09:31:00,47.9,29.7,30.05,NW,323,7.0,12.0,49,0.00,,,0.00,700,WeatherCatV1.15B25,2013-04-20 13:31:00,
2013-04-20 09:36:00,48.4,31.1,30.05,NW,309,9.0,12.0,51,0.00,,,0.00,715,WeatherCatV1.15B25,2013-04-20 13:36:00,
2013-04-20 09:41:00,48.4,29.6,30.05,SW,229,5.0,15.0,48,0.00,,,0.00,204,WeatherCatV1.15B25,2013-04-20 13:41:00,
2013-04-20 09:46:00,48.4,30.1,30.05,SW,223,3.0,12.0,49,0.00,,,0.00,724,WeatherCatV1.15B25,2013-04-20 13:46:00,
2013-04-20 09:51:00,49.1,30.3,30.06,West,260,12.0,12.0,48,0.00,,,0.00,257,WeatherCatV1.15B25,2013-04-20 13:51:00,
2013-04-20 09:58:00,48.9,30.1,30.06,WNW,294,11.0,19.0,48,0.00,,,0.00,770,WeatherCatV1.15B25,2013-04-20 13:58:00,
2013-04-20 10:03:00,49.0,29.7,30.07,West,277,9.0,17.0,47,0.00,,,0.00,744,WeatherCatV1.15B25,2013-04-20 14:03:00,
2013-04-20 10:08:00,49.4,29.0,30.07,WNW,293,9.0,16.0,45,0.00,,,0.00,823,WeatherCatV1.15B25,2013-04-20 14:08:00,
2013-04-20 10:10:00,49.2,30.4,30.06,WSW,248,5.0,16.0,48,0.00,,,0.00,789,WeatherCatV1.15B25,2013-04-20 14:10:00,
2013-04-20 10:15:00,49.4,30.5,30.07,WNW,296,8.0,23.0,48,0.00,,,0.00,765,WeatherCatV1.15B25,2013-04-20 14:15:00,
2013-04-20 10:22:00,49.7,30.8,30.07,West,270,11.0,19.0,48,0.00,,,0.00,849,WeatherCatV1.15B25,2013-04-20 14:22:00,
2013-04-20 10:27:00,50.2,31.8,30.07,WNW,284,8.0,16.0,49,0.00,,,0.00,939,WeatherCatV1.15B25,2013-04-20 14:27:00,
2013-04-20 10:32:00,50.1,30.7,30.08,West,261,7.0,18.0,47,0.00,,,0.00,972,WeatherCatV1.15B25,2013-04-20 14:32:00,
2013-04-20 10:37:00,50.4,30.9,30.08,WNW,296,13.0,17.0,47,0.00,,,0.00,874,WeatherCatV1.15B25,2013-04-20 14:37:00,
2013-04-20 10:42:00,50.6,30.6,30.08,West,263,8.0,8.0,46,0.00,,,0.00,874,WeatherCatV1.15B25,2013-04-20 14:42:00,
2013-04-20 10:47:00,50.9,30.9,30.08,WNW,293,13.0,13.0,46,0.00,,,0.00,872,WeatherCatV1.15B25,2013-04-20 14:47:00,
2013-04-20 10:52:00,50.3,30.3,30.08,SW,225,7.0,19.0,46,0.00,,,0.00,851,WeatherCatV1.15B25,2013-04-20 14:52:00,
2013-04-20 10:57:00,50.4,30.4,30.08,WNW,286,8.0,12.0,46,0.00,,,0.00,861,WeatherCatV1.15B25,2013-04-20 14:57:00,
2013-04-20 11:03:00,50.7,31.7,30.08,SW,230,9.0,10.0,48,0.00,,,0.00,861,WeatherCatV1.15B25,2013-04-20 15:03:00,
2013-04-20 11:08:00,50.6,30.6,30.08,West,271,9.0,11.0,46,0.00,,,0.00,954,WeatherCatV1.15B25,2013-04-20 15:08:00,
2013-04-20 11:13:00,51.0,32.0,30.09,West,262,9.0,13.0,48,0.00,,,0.00,935,WeatherCatV1.15B25,2013-04-20 15:13:00,
2013-04-20 11:18:00,51.2,31.1,30.09,West,275,5.0,18.0,46,0.00,,,0.00,963,WeatherCatV1.15B25,2013-04-20 15:18:00,
2013-04-20 11:23:00,51.3,31.8,30.09,West,260,6.0,11.0,47,0.00,,,0.00,889,WeatherCatV1.15B25,2013-04-20 15:23:00,
2013-04-20 11:28:00,51.5,32.5,30.09,WNW,288,7.0,7.0,48,0.00,,,0.00,1007,WeatherCatV1.15B25,2013-04-20 15:28:00,
2013-04-20 11:33:00,52.3,31.0,30.09,WSW,239,7.0,8.0,44,0.00,,,0.00,993,WeatherCatV1.15B25,2013-04-20 15:33:00,
2013-04-20 11:38:00,52.7,30.8,30.08,SW,233,8.0,14.0,43,0.00,,,0.00,979,WeatherCatV1.15B25,2013-04-20 15:38:00,
2013-04-20 11:43:00,51.8,30.0,30.09,NNW,329,8.0,11.0,43,0.00,,,0.00,476,WeatherCatV1.15B25,2013-04-20 15:43:00,
2013-04-20 11:48:00,52.1,29.7,30.09,WSW,237,7.0,11.0,42,0.00,,,0.00,1007,WeatherCatV1.15B25,2013-04-20 15:48:00,
2013-04-20 11:53:00,52.6,30.7,30.09,WSW,256,8.0,12.0,43,0.00,,,0.00,1023,WeatherCatV1.15B25,2013-04-20 15:53:00,
2013-04-20 11:58:00,52.9,29.2,30.09,WNW,286,17.0,22.0,40,0.00,,,0.00,1037,WeatherCatV1.15B25,2013-04-20 15:58:00,
2013-04-20 12:03:00,52.9,31.6,30.09,West,271,5.0,15.0,44,0.00,,,0.00,1065,WeatherCatV1.15B25,2013-04-20 16:03:00,
2013-04-20 12:08:00,53.5,29.8,30.09,West,268,10.0,14.0,40,0.00,,,0.00,1056,WeatherCatV1.15B25,2013-04-20 16:08:00,
2013-04-20 12:13:00,53.7,30.6,30.09,WSW,252,5.0,10.0,41,0.00,,,0.00,1072,WeatherCatV1.15B25,2013-04-20 16:13:00,
2013-04-20 12:18:00,53.2,30.1,30.09,NW,307,12.0,17.0,41,0.00,,,0.00,1055,WeatherCatV1.15B25,2013-04-20 16:18:00,
2013-04-20 12:23:00,53.1,28.8,30.09,West,259,7.0,9.0,39,0.00,,,0.00,1067,WeatherCatV1.15B25,2013-04-20 16:23:00,
2013-04-20 12:28:00,52.6,29.0,30.09,West,278,13.0,15.0,40,0.00,,,0.00,1020,WeatherCatV1.15B25,2013-04-20 16:28:00,
2013-04-20 12:33:00,52.7,30.3,30.09,SW,229,8.0,12.0,42,0.00,,,0.00,1116,WeatherCatV1.15B25,2013-04-20 16:33:00,
2013-04-20 12:38:00,53.0,30.5,30.09,West,276,12.0,12.0,42,0.00,,,0.00,1046,WeatherCatV1.15B25,2013-04-20 16:38:00,
2013-04-20 12:43:00,53.8,30.0,30.08,West,278,9.0,15.0,40,0.00,,,0.00,1065,WeatherCatV1.15B25,2013-04-20 16:43:00,
2013-04-20 12:48:00,54.4,29.3,30.09,SW,230,5.0,13.0,38,0.00,,,0.00,1092,WeatherCatV1.15B25,2013-04-20 16:48:00,
2013-04-20 12:53:00,54.6,30.8,30.09,WSW,251,9.0,13.0,40,0.00,,,0.00,1083,WeatherCatV1.15B25,2013-04-20 16:53:00,
2013-04-20 12:58:00,55.0,32.3,30.08,West,281,10.0,10.0,42,0.00,,,0.00,1067,WeatherCatV1.15B25,2013-04-20 16:58:00,
2013-04-20 13:03:00,55.4,30.2,30.09,WNW,291,7.0,9.0,38,0.00,,,0.00,896,WeatherCatV1.15B25,2013-04-20 17:03:00,
2013-04-20 13:08:00,55.3,29.5,30.09,WSW,241,11.0,17.0,37,0.00,,,0.00,1090,WeatherCatV1.15B25,2013-04-20 17:08:00,
2013-04-20 13:13:00,55.0,28.5,30.09,WSW,250,13.0,16.0,36,0.00,,,0.00,1053,WeatherCatV1.15B25,2013-04-20 17:13:00,
2013-04-20 13:18:00,54.9,29.1,30.09,WSW,242,11.0,14.0,37,0.00,,,0.00,1085,WeatherCatV1.15B25,2013-04-20 17:18:00,
2013-04-20 13:23:00,54.7,29.6,30.09,West,271,7.0,13.0,38,0.00,,,0.00,981,WeatherCatV1.15B25,2013-04-20 17:23:00,
2013-04-20 13:28:00,55.3,31.4,30.08,West,277,5.0,6.0,40,0.00,,,0.00,1199,WeatherCatV1.15B25,2013-04-20 17:28:00,
2013-04-20 13:33:00,56.3,31.0,30.08,SW,233,8.0,12.0,38,0.00,,,0.00,1041,WeatherCatV1.15B25,2013-04-20 17:33:00,
2013-04-20 13:38:00,56.1,30.8,30.09,WNW,298,9.0,12.0,38,0.00,,,0.00,1025,WeatherCatV1.15B25,2013-04-20 17:38:00,
2013-04-20 13:43:00,56.2,29.6,30.09,NW,309,10.0,14.0,36,0.00,,,0.00,998,WeatherCatV1.15B25,2013-04-20 17:43:00,
2013-04-20 13:48:00,55.9,30.7,30.08,NW,314,7.0,12.0,38,0.00,,,0.00,218,WeatherCatV1.15B25,2013-04-20 17:48:00,
2013-04-20 13:51:00,56.0,28.7,30.08,WSW,247,8.0,13.0,35,0.00,,,0.00,965,WeatherCatV1.15B25,2013-04-20 17:51:00,
2013-04-20 13:53:00,56.1,28.8,30.09,West,273,7.0,13.0,35,0.00,,,0.00,965,WeatherCatV1.15B25,2013-04-20 17:53:00,
2013-04-20 13:58:00,56.6,30.0,30.08,West,270,11.0,12.0,36,0.00,,,0.00,237,WeatherCatV1.15B25,2013-04-20 17:58:00,
2013-04-20 14:03:00,56.7,30.0,30.08,West,259,8.0,14.0,36,0.00,,,0.00,1120,WeatherCatV1.15B25,2013-04-20 18:03:00,
2013-04-20 14:08:00,56.3,33.5,30.08,WNW,282,8.0,8.0,42,0.00,,,0.00,1023,WeatherCatV1.15B25,2013-04-20 18:08:00,
2013-04-20 14:13:00,55.7,27.8,30.09,WNW,296,12.0,12.0,34,0.00,,,0.00,213,WeatherCatV1.15B25,2013-04-20 18:13:00,
2013-04-20 14:18:00,54.2,27.8,30.09,WNW,291,9.0,10.0,36,0.00,,,0.00,190,WeatherCatV1.15B25,2013-04-20 18:18:00,
2013-04-20 14:23:00,53.5,27.9,30.09,WNW,282,7.0,12.0,37,0.00,,,0.00,236,WeatherCatV1.15B25,2013-04-20 18:23:00,
2013-04-20 14:28:00,54.0,30.8,30.09,NNW,330,7.0,11.0,41,0.00,,,0.00,192,WeatherCatV1.15B25,2013-04-20 18:28:00,
2013-04-20 14:33:00,53.9,28.2,30.09,West,275,7.0,14.0,37,0.00,,,0.00,199,WeatherCatV1.15B25,2013-04-20 18:33:00,
2013-04-20 14:38:00,53.5,27.9,30.09,WNW,303,6.0,8.0,37,0.00,,,0.00,206,WeatherCatV1.15B25,2013-04-20 18:38:00,
2013-04-20 14:43:00,53.3,28.3,30.09,NW,315,6.0,12.0,38,0.00,,,0.00,216,WeatherCatV1.15B25,2013-04-20 18:43:00,
2013-04-20 14:48:00,53.3,28.3,30.09,NW,313,7.0,11.0,38,0.00,,,0.00,171,WeatherCatV1.15B25,2013-04-20 18:48:00,
2013-04-20 14:53:00,53.4,27.8,30.09,West,281,5.0,12.0,37,0.00,,,0.00,190,WeatherCatV1.15B25,2013-04-20 18:53:00,
2013-04-20 14:58:00,54.0,30.2,30.09,NW,305,7.0,8.0,40,0.00,,,0.00,912,WeatherCatV1.15B25,2013-04-20 18:58:00,
2013-04-20 15:03:00,54.8,29.7,30.09,NW,324,5.0,13.0,38,0.00,,,0.00,1044,WeatherCatV1.15B25,2013-04-20 19:03:00,
2013-04-20 15:08:00,55.9,31.9,30.09,WNW,288,4.0,8.0,40,0.00,,,0.00,1041,WeatherCatV1.15B25,2013-04-20 19:08:00,
2013-04-20 15:13:00,56.3,29.7,30.09,WNW,293,4.0,9.0,36,0.00,,,0.00,893,WeatherCatV1.15B25,2013-04-20 19:13:00,
2013-04-20 15:18:00,56.5,29.9,30.10,West,277,4.0,15.0,36,0.00,,,0.00,911,WeatherCatV1.15B25,2013-04-20 19:18:00,
2013-04-20 15:23:00,57.1,29.0,30.09,NW,309,2.0,9.0,34,0.00,,,0.00,893,WeatherCatV1.15B25,2013-04-20 19:23:00,
2013-04-20 15:28:00,57.8,28.9,30.09,WNW,294,9.0,14.0,33,0.00,,,0.00,886,WeatherCatV1.15B25,2013-04-20 19:28:00,
2013-04-20 15:33:00,58.0,29.1,30.09,WSW,247,5.0,15.0,33,0.00,,,0.00,870,WeatherCatV1.15B25,2013-04-20 19:33:00,
2013-04-20 15:38:00,58.2,30.0,30.10,West,279,5.0,7.0,34,0.00,,,0.00,846,WeatherCatV1.15B25,2013-04-20 19:38:00,
2013-04-20 15:43:00,58.0,30.5,30.10,WNW,302,4.0,10.0,35,0.00,,,0.00,814,WeatherCatV1.15B25,2013-04-20 19:43:00,
2013-04-20 15:48:00,58.4,29.4,30.10,NW,304,9.0,9.0,33,0.00,,,0.00,835,WeatherCatV1.15B25,2013-04-20 19:48:00,
2013-04-20 15:53:00,58.5,29.5,30.09,SW,221,14.0,15.0,33,0.00,,,0.00,777,WeatherCatV1.15B25,2013-04-20 19:53:00,
2013-04-20 15:58:00,58.0,29.8,30.09,SW,227,6.0,9.0,34,0.00,,,0.00,793,WeatherCatV1.15B25,2013-04-20 19:58:00,
2013-04-20 16:03:00,58.4,28.7,30.10,NW,308,5.0,8.0,32,0.00,,,0.00,768,WeatherCatV1.15B25,2013-04-20 20:03:00,
2013-04-20 16:08:00,58.5,29.5,30.10,NW,306,5.0,10.0,33,0.00,,,0.00,749,WeatherCatV1.15B25,2013-04-20 20:08:00,
2013-04-20 16:13:00,58.3,28.6,30.10,NW,316,7.0,15.0,32,0.00,,,0.00,766,WeatherCatV1.15B25,2013-04-20 20:13:00,
2013-04-20 16:18:00,58.5,29.5,30.10,West,273,4.0,9.0,33,0.00,,,0.00,738,WeatherCatV1.15B25,2013-04-20 20:18:00,
2013-04-20 16:23:00,58.6,30.3,30.10,North,351,1.0,7.0,34,0.00,,,0.00,717,WeatherCatV1.15B25,2013-04-20 20:23:00,
2013-04-20 16:28:00,58.4,27.9,30.10,NNW,339,1.0,7.0,31,0.00,,,0.00,705,WeatherCatV1.15B25,2013-04-20 20:28:00,
2013-04-20 16:33:00,57.7,30.2,30.11,WNW,291,5.0,7.0,35,0.00,,,0.00,742,WeatherCatV1.15B25,2013-04-20 20:33:00,
2013-04-20 16:39:00,57.4,27.8,30.11,NNW,343,8.0,13.0,32,0.00,,,0.00,643,WeatherCatV1.15B25,2013-04-20 20:39:00,
2013-04-20 16:44:00,56.8,28.7,30.11,WNW,286,7.0,14.0,34,0.00,,,0.00,680,WeatherCatV1.15B25,2013-04-20 20:44:00,
2013-04-20 16:49:00,55.9,27.9,30.12,WNW,296,2.0,9.0,34,0.00,,,0.00,134,WeatherCatV1.15B25,2013-04-20 20:49:00,
2013-04-20 16:54:00,55.2,27.3,30.12,NW,304,4.0,6.0,34,0.00,,,0.00,109,WeatherCatV1.15B25,2013-04-20 20:54:00,
2013-04-20 16:59:00,54.8,27.7,30.12,NW,317,5.0,7.0,35,0.00,,,0.00,90,WeatherCatV1.15B25,2013-04-20 20:59:00,
2013-04-20 17:04:00,54.4,28.0,30.12,West,273,2.0,3.0,36,0.00,,,0.00,123,WeatherCatV1.15B25,2013-04-20 21:04:00,
2013-04-20 17:09:00,54.3,26.5,30.13,WNW,284,7.0,10.0,34,0.00,,,0.00,163,WeatherCatV1.15B25,2013-04-20 21:09:00,
2013-04-20 17:14:00,54.7,26.2,30.13,WSW,246,7.0,14.0,33,0.00,,,0.00,540,WeatherCatV1.15B25,2013-04-20 21:14:00,
2013-04-20 17:19:00,55.3,26.7,30.13,WNW,282,10.0,15.0,33,0.00,,,0.00,139,WeatherCatV1.15B25,2013-04-20 21:19:00,
2013-04-20 17:24:00,55.3,26.0,30.13,WNW,300,10.0,11.0,32,0.00,,,0.00,114,WeatherCatV1.15B25,2013-04-20 21:24:00,
2013-04-20 17:29:00,55.4,28.2,30.13,WNW,287,3.0,6.0,35,0.00,,,0.00,172,WeatherCatV1.15B25,2013-04-20 21:29:00,
2013-04-20 17:34:00,55.3,27.4,30.14,NW,318,0.0,2.0,34,0.00,,,0.00,72,WeatherCatV1.15B25,2013-04-20 21:34:00,
2013-04-20 17:39:00,55.1,26.5,30.14,West,269,5.0,10.0,33,0.00,,,0.00,86,WeatherCatV1.15B25,2013-04-20 21:39:00,
2013-04-20 17:44:00,55.1,27.2,30.14,WNW,296,3.0,8.0,34,0.00,,,0.00,302,WeatherCatV1.15B25,2013-04-20 21:44:00,
2013-04-20 17:49:00,55.4,26.8,30.14,NNW,339,3.0,9.0,33,0.00,,,0.00,90,WeatherCatV1.15B25,2013-04-20 21:49:00,
2013-04-20 17:54:00,55.5,27.6,30.14,West,263,2.0,5.0,34,0.00,,,0.00,204,WeatherCatV1.15B25,2013-04-20 21:54:00,
2013-04-20 17:59:00,55.6,27.0,30.15,NNE,21,4.0,5.0,33,0.00,,,0.00,76,WeatherCatV1.15B25,2013-04-20 21:59:00,
2013-04-20 18:04:00,55.4,27.5,30.15,WNW,294,3.0,5.0,34,0.00,,,0.00,83,WeatherCatV1.15B25,2013-04-20 22:04:00,
2013-04-20 18:09:00,55.2,26.6,30.15,WNW,289,7.0,11.0,33,0.00,,,0.00,65,WeatherCatV1.15B25,2013-04-20 22:09:00,
2013-04-20 18:15:00,54.7,26.9,30.16,NW,322,5.0,11.0,34,0.00,,,0.00,54,WeatherCatV1.15B25,2013-04-20 22:15:00,
2013-04-20 18:20:00,54.6,26.8,30.16,WNW,294,7.0,7.0,34,0.00,,,0.00,142,WeatherCatV1.15B25,2013-04-20 22:20:00,
2013-04-20 18:25:00,54.7,26.2,30.16,NW,307,7.0,8.0,33,0.00,,,0.00,51,WeatherCatV1.15B25,2013-04-20 22:25:00,
2013-04-20 18:30:00,54.7,26.2,30.16,NNW,331,7.0,11.0,33,0.00,,,0.00,69,WeatherCatV1.15B25,2013-04-20 22:30:00,
2013-04-20 18:35:00,54.6,25.3,30.17,West,261,5.0,7.0,32,0.00,,,0.00,60,WeatherCatV1.15B25,2013-04-20 22:35:00,
2013-04-20 18:40:00,54.2,25.7,30.17,WNW,302,8.0,13.0,33,0.00,,,0.00,40,WeatherCatV1.15B25,2013-04-20 22:40:00,
2013-04-20 18:45:00,54.0,26.3,30.17,NW,310,4.0,10.0,34,0.00,,,0.00,69,WeatherCatV1.15B25,2013-04-20 22:45:00,
2013-04-20 18:50:00,54.0,26.3,30.18,West,262,2.0,10.0,34,0.00,,,0.00,49,WeatherCatV1.15B25,2013-04-20 22:50:00,
2013-04-20 18:55:00,53.7,26.0,30.18,WNW,285,3.0,6.0,34,0.00,,,0.00,44,WeatherCatV1.15B25,2013-04-20 22:55:00,
2013-04-20 19:00:00,53.5,26.5,30.18,WNW,290,5.0,6.0,35,0.00,,,0.00,47,WeatherCatV1.15B25,2013-04-20 23:00:00,
2013-04-20 19:05:00,53.5,25.8,30.18,West,264,5.0,10.0,34,0.00,,,0.00,40,WeatherCatV1.15B25,2013-04-20 23:05:00,
2013-04-20 19:10:00,53.5,25.1,30.18,WNW,282,3.0,6.0,33,0.00,,,0.00,53,WeatherCatV1.15B25,2013-04-20 23:10:00,
2013-04-20 19:15:00,53.4,25.0,30.19,NNW,337,6.0,8.0,33,0.00,,,0.00,40,WeatherCatV1.15B25,2013-04-20 23:15:00,
2013-04-20 19:20:00,53.4,25.7,30.19,NW,320,2.0,7.0,34,0.00,,,0.00,28,WeatherCatV1.15B25,2013-04-20 23:20:00,
2013-04-20 19:25:00,53.2,25.6,30.19,West,273,9.0,12.0,34,0.00,,,0.00,26,WeatherCatV1.15B25,2013-04-20 23:25:00,
2013-04-20 19:30:00,53.1,25.5,30.20,WNW,293,6.0,8.0,34,0.00,,,0.00,19,WeatherCatV1.15B25,2013-04-20 23:30:00,
2013-04-20 19:35:00,52.8,25.9,30.20,WNW,298,5.0,5.0,35,0.00,,,0.00,16,WeatherCatV1.15B25,2013-04-20 23:35:00,
2013-04-20 19:40:00,52.4,25.6,30.20,NNW,338,2.0,4.0,35,0.00,,,0.00,12,WeatherCatV1.15B25,2013-04-20 23:40:00,
2013-04-20 19:45:00,52.1,26.0,30.20,NW,312,2.0,3.0,36,0.00,,,0.00,11,WeatherCatV1.15B25,2013-04-20 23:45:00,
2013-04-20 19:50:00,51.7,25.6,30.21,NNW,327,2.0,2.0,36,0.00,,,0.00,7,WeatherCatV1.15B25,2013-04-20 23:50:00,
2013-04-20 19:55:00,51.4,25.4,30.21,NNW,341,1.0,3.0,36,0.00,,,0.00,5,WeatherCatV1.15B25,2013-04-20 23:55:00,
2013-04-20 20:00:00,51.3,25.9,30.22,NNW,331,1.0,2.0,37,0.00,,,0.00,0,WeatherCatV1.15B25,2013-04-21 00:00:00,
2013-04-20 20:05:00,51.0,26.3,30.22,North,350,1.0,4.0,38,0.00,,,0.00,0,WeatherCatV1.15B25,2013-04-21 00:05:00,
2013-04-20 20:10:00,50.6,25.9,30.22,NE,43,1.0,2.0,38,0.00,,,0.00,0,WeatherCatV1.15B25,2013-04-21 00:10:00,
2013-04-20 20:15:00,50.4,25.8,30.23,NNE,17,4.0,6.0,38,0.00,,,0.00,0,WeatherCatV1.15B25,2013-04-21 00:15:00,
2013-04-20 20:20:00,50.2,26.2,30.24,North,354,1.0,3.0,39,0.00,,,0.00,0,WeatherCatV1.15B25,2013-04-21 00:20:00,
2013-04-20 20:25:00,49.9,25.9,30.24,North,358,0.0,4.0,39,0.00,,,0.00,0,WeatherCatV1.15B25,2013-04-21 00:25:00,
2013-04-20 20:30:00,49.7,25.8,30.24,North,2,0.0,1.0,39,0.00,,,0.00,0,WeatherCatV1.15B25,2013-04-21 00:30:00,
2013-04-20 20:36:00,49.6,26.3,30.25,NW,323,3.0,3.0,40,0.00,,,0.00,0,WeatherCatV1.15B25,2013-04-21 00:36:00,
2013-04-20 20:41:00,49.4,25.5,30.26,ENE,77,2.0,3.0,39,0.00,,,0.00,0,WeatherCatV1.15B25,2013-04-21 00:41:00,
2013-04-20 20:46:00,49.2,26.5,30.26,NNW,327,0.0,4.0,41,0.00,,,0.00,0,WeatherCatV1.15B25,2013-04-21 00:46:00,
2013-04-20 20:51:00,49.0,26.3,30.26,North,3,1.0,3.0,41,0.00,,,0.00,0,WeatherCatV1.15B25,2013-04-21 00:51:00,
2013-04-20 20:56:00,48.7,26.6,30.27,NNE,17,2.0,10.0,42,0.00,,,0.00,0,WeatherCatV1.15B25,2013-04-21 00:56:00,
2013-04-20 21:01:00,48.5,27.0,30.27,NW,314,0.0,5.0,43,0.00,,,0.00,0,WeatherCatV1.15B25,2013-04-21 01:01:00,
2013-04-20 21:06:00,48.3,25.7,30.28,NNE,28,2.0,4.0,41,0.00,,,0.00,0,WeatherCatV1.15B25,2013-04-21 01:06:00,
2013-04-20 21:11:00,48.2,26.8,30.28,NW,321,0.0,2.0,43,0.00,,,0.00,0,WeatherCatV1.15B25,2013-04-21 01:11:00,
2013-04-20 21:16:00,48.0,26.6,30.29,North,1,0.0,2.0,43,0.00,,,0.00,0,WeatherCatV1.15B25,2013-04-21 01:16:00,
2013-04-20 21:21:00,47.7,25.7,30.29,North,357,0.0,2.0,42,0.00,,,0.00,0,WeatherCatV1.15B25,2013-04-21 01:21:00,
2013-04-20 21:26:00,47.5,26.7,30.30,NE,38,0.0,1.0,44,0.00,,,0.00,0,WeatherCatV1.15B25,2013-04-21 01:26:00,
2013-04-20 21:27:00,47.4,26.6,30.30,NE,34,2.0,2.0,44,0.00,,,0.00,0,WeatherCatV1.15B25,2013-04-21 01:27:00,
2013-04-20 21:32:00,47.1,26.9,30.30,WNW,303,2.0,2.0,45,0.00,,,0.00,0,WeatherCatV1.15B25,2013-04-21 01:32:00,
2013-04-20 21:39:00,46.7,26.0,30.31,NNW,341,2.0,2.0,44,0.00,,,0.00,0,WeatherCatV1.15B25,2013-04-21 01:39:00,
2013-04-20 21:44:00,46.6,26.4,30.31,NNW,333,2.0,3.0,45,0.00,,,0.00,0,WeatherCatV1.15B25,2013-04-21 01:44:00,
2013-04-20 21:49:00,46.5,26.3,30.31,NNW,335,0.0,3.0,45,0.00,,,0.00,0,WeatherCatV1.15B25,2013-04-21 01:49:00,
2013-04-20 21:54:00,46.5,26.3,30.32,NW,311,1.0,3.0,45,0.00,,,0.00,0,WeatherCatV1.15B25,2013-04-21 01:54:00,
2013-04-20 21:59:00,46.3,26.1,30.32,NNE,17,2.0,6.0,45,0.00,,,0.00,0,WeatherCatV1.15B25,2013-04-21 01:59:00,
2013-04-20 22:04:00,46.1,26.5,30.32,NNW,338,1.0,3.0,46,0.00,,,0.00,0,WeatherCatV1.15B25,2013-04-21 02:04:00,
2013-04-20 22:09:00,46.1,26.5,30.33,NW,321,3.0,4.0,46,0.00,,,0.00,0,WeatherCatV1.15B25,2013-04-21 02:09:00,
2013-04-20 22:14:00,46.0,26.4,30.33,NNW,335,1.0,3.0,46,0.00,,,0.00,0,WeatherCatV1.15B25,2013-04-21 02:14:00,
2013-04-20 22:19:00,46.0,26.4,30.33,ENE,73,3.0,3.0,46,0.00,,,0.00,0,WeatherCatV1.15B25,2013-04-21 02:19:00,
2013-04-20 22:24:00,46.0,26.4,30.33,NNW,343,2.0,3.0,46,0.00,,,0.00,0,WeatherCatV1.15B25,2013-04-21 02:24:00,
2013-04-20 22:29:00,45.9,26.3,30.33,NNE,29,2.0,2.0,46,0.00,,,0.00,0,WeatherCatV1.15B25,2013-04-21 02:29:00,
2013-04-20 22:34:00,45.8,26.7,30.33,NW,312,0.0,1.0,47,0.00,,,0.00,0,WeatherCatV1.15B25,2013-04-21 02:34:00,
2013-04-20 22:39:00,45.5,26.5,30.34,North,349,1.0,5.0,47,0.00,,,0.00,0,WeatherCatV1.15B25,2013-04-21 02:39:00,
2013-04-20 22:44:00,45.4,26.4,30.34,NNE,17,0.0,4.0,47,0.00,,,0.00,0,WeatherCatV1.15B25,2013-04-21 02:44:00,
2013-04-20 22:49:00,45.2,26.2,30.34,NNW,345,0.0,2.0,47,0.00,,,0.00,0,WeatherCatV1.15B25,2013-04-21 02:49:00,
2013-04-20 22:54:00,45.1,26.6,30.35,NNW,343,0.0,0.0,48,0.00,,,0.00,0,WeatherCatV1.15B25,2013-04-21 02:54:00,
2013-04-20 22:59:00,45.0,26.5,30.35,WNW,283,2.0,2.0,48,0.00,,,0.00,0,WeatherCatV1.15B25,2013-04-21 02:59:00,
2013-04-20 23:04:00,44.7,26.7,30.35,NNW,333,1.0,2.0,49,0.00,,,0.00,0,WeatherCatV1.15B25,2013-04-21 03:04:00,
2013-04-20 23:09:00,44.4,26.5,30.35,NW,306,0.0,3.0,49,0.00,,,0.00,0,WeatherCatV1.15B25,2013-04-21 03:09:00,
2013-04-20 23:14:00,44.3,25.9,30.35,NNE,17,2.0,3.0,48,0.00,,,0.00,0,WeatherCatV1.15B25,2013-04-21 03:14:00,
2013-04-20 23:19:00,44.3,26.4,30.36,North,350,0.0,1.0,49,0.00,,,0.00,0,WeatherCatV1.15B25,2013-04-21 03:19:00,
2013-04-20 23:24:00,44.1,26.2,30.36,NE,45,2.0,2.0,49,0.00,,,0.00,0,WeatherCatV1.15B25,2013-04-21 03:24:00,
2013-04-20 23:27:00,44.0,26.1,30.36,NE,45,0.0,2.0,49,0.00,,,0.00,0,WeatherCatV1.15B25,2013-04-21 03:27:00,
2013-04-20 23:32:00,43.8,26.4,30.36,NNW,345,1.0,2.0,50,0.00,,,0.00,0,WeatherCatV1.15B25,2013-04-21 03:32:00,
2013-04-20 23:37:00,43.4,28.8,30.36,NNW,345,0.0,0.0,56,0.00,,,0.00,0,WeatherCatV1.15B25,2013-04-21 03:37:00,
2013-04-20 23:42:00,42.7,26.3,30.37,ENE,69,1.0,2.0,52,0.00,,,0.00,0,WeatherCatV1.15B25,2013-04-21 03:42:00,
2013-04-20 23:47:00,42.5,27.9,30.37,NE,52,0.0,0.0,56,0.00,,,0.00,0,WeatherCatV1.15B25,2013-04-21 03:47:00,
2013-04-20 23:52:00,42.0,27.9,30.37,NE,52,0.0,0.0,57,0.00,,,0.00,0,WeatherCatV1.15B25,2013-04-21 03:52:00,
2013-04-20 23:57:00,41.6,27.1,30.37,NE,52,0.0,0.0,56,0.00,,,0.00,0,WeatherCatV1.15B25,2013-04-21 03:57:00,